Time;durP1;ratioP1;P1;durP2;ratioP2;P2;SDS_P1;SDS_P2;PMS_P1;PMS_P2;Temp;Humidity;BMP_temperature;BMP_pressure;BME280_temperature;BME280_humidity;BME280_pressure;Samples;Min_cycle;Max_cycle;Signal;HPM_P1;HPM_P2
2023/05/19 00:01:18;;;;;;;4.80;2.60;;;;;;;9.69;82.98;98666.59;5074824;28;20217;-82
2023/05/19 00:03:53;;;;;;;3.60;2.47;;;;;;;9.58;84.05;98661.06;5074581;28;20229;-82
2023/05/19 00:06:23;;;;;;;3.83;2.40;;;;;;;9.55;85.10;98663.91;5074428;28;20266;-82
2023/05/19 00:08:50;;;;;;;3.17;2.27;;;;;;;9.47;85.74;98663.47;5074558;28;20239;-82
2023/05/19 00:11:19;;;;;;;2.90;2.37;;;;;;;9.42;86.75;98660.25;5074025;28;20262;-82
2023/05/19 00:13:48;;;;;;;3.80;2.50;;;;;;;9.51;86.87;98649.19;5074530;28;20586;-82
2023/05/19 00:16:15;;;;;;;5.83;2.67;;;;;;;9.80;82.06;98635.16;5074149;28;20668;-82
2023/05/19 00:18:42;;;;;;;3.87;2.60;;;;;;;10.09;78.48;98616.69;5074403;28;20281;-81
2023/05/19 00:21:08;;;;;;;14.70;2.90;;;;;;;10.28;76.08;98605.88;5074100;28;20210;-82
2023/05/19 00:23:35;;;;;;;5.77;3.60;;;;;;;10.44;74.48;98598.69;5074694;28;20227;-82
2023/05/19 00:26:01;;;;;;;4.73;2.40;;;;;;;10.57;73.88;98604.94;5074535;28;20215;-82
2023/05/19 00:28:29;;;;;;;4.13;2.53;;;;;;;10.61;73.29;98603.81;5074208;28;20219;-82
2023/05/19 00:30:56;;;;;;;5.83;2.90;;;;;;;10.56;74.15;98601.47;5074095;28;20214;-82
2023/05/19 00:33:22;;;;;;;3.37;2.40;;;;;;;10.50;75.33;98612.41;5073612;28;20247;-82
2023/05/19 00:35:49;;;;;;;4.97;2.23;;;;;;;10.49;75.22;98609.84;5074100;28;20681;-82
2023/05/19 00:38:16;;;;;;;6.57;2.60;;;;;;;10.49;76.42;98612.50;5073808;28;20733;-82
2023/05/19 00:40:42;;;;;;;5.10;2.30;;;;;;;10.54;76.25;98607.78;5074008;28;20211;-82
2023/05/19 00:43:09;;;;;;;3.00;2.33;;;;;;;10.47;76.05;98611.75;5073990;28;20214;-82
2023/05/19 00:45:37;;;;;;;3.53;2.40;;;;;;;10.37;77.06;98611.47;5074109;28;20227;-82
2023/05/19 00:48:03;;;;;;;4.13;2.57;;;;;;;10.25;77.96;98608.69;5073977;28;20227;-82
2023/05/19 00:50:30;;;;;;;4.87;2.40;;;;;;;10.16;77.89;98617.19;5074377;28;20211;-82
2023/05/19 00:52:57;;;;;;;5.67;2.50;;;;;;;10.13;78.62;98612.06;5073870;28;20687;-82
2023/05/19 00:55:26;;;;;;;3.57;2.80;;;;;;;10.18;77.88;98604.72;5073813;28;20211;-82
2023/05/19 00:57:53;;;;;;;5.90;2.57;;;;;;;10.24;76.41;98604.34;5073444;28;20239;-82
2023/05/19 01:00:20;;;;;;;6.00;2.57;;;;;;;10.12;76.92;98610.38;5072238;28;20695;-82
2023/05/19 01:02:49;;;;;;;5.40;2.57;;;;;;;10.03;78.74;98602.97;5070748;28;20211;-82
2023/05/19 01:05:16;;;;;;;2.73;2.30;;;;;;;9.87;80.21;98605.69;5070691;28;20236;-82
2023/05/19 01:07:43;;;;;;;4.33;2.30;;;;;;;9.77;81.50;98608.94;5070935;28;20242;-82
2023/05/19 01:10:10;;;;;;;7.00;2.70;;;;;;;9.70;82.51;98623.44;5072767;28;20692;-82
2023/05/19 01:12:37;;;;;;;3.37;2.20;;;;;;;9.62;83.88;98621.22;5073539;28;20216;-82
2023/05/19 01:15:04;;;;;;;6.23;2.90;;;;;;;9.68;83.75;98620.03;5073408;28;20210;-82
2023/05/19 01:17:42;;;;;;;4.97;2.70;;;;;;;9.77;81.89;98611.56;5073352;28;20243;-82
2023/05/19 01:20:17;;;;;;;5.23;2.50;;;;;;;9.84;81.78;98610.28;5073419;28;20201;-82
2023/05/19 01:23:13;;;;;;;4.80;2.60;;;;;;;9.92;81.40;98605.41;5073281;28;20264;-82
2023/05/19 01:26:04;;;;;;;7.67;2.90;;;;;;;10.02;79.71;98601.25;5073400;28;20318;-82
2023/05/19 01:28:58;;;;;;;3.60;2.57;;;;;;;10.03;79.75;98610.91;5073434;28;20208;-82
2023/05/19 01:31:27;;;;;;;5.40;2.63;;;;;;;10.22;78.29;98611.53;5072957;28;20221;-82
2023/05/19 01:33:54;;;;;;;4.10;2.37;;;;;;;10.26;77.91;98605.09;5073143;28;20601;-82
2023/05/19 01:36:22;;;;;;;4.93;2.23;;;;;;;10.33;77.18;98601.19;5073586;28;20288;-82
2023/05/19 01:38:51;;;;;;;7.87;2.57;;;;;;;10.39;76.95;98606.09;5072847;28;20223;-82
2023/05/19 01:41:19;;;;;;;5.23;2.93;;;;;;;10.46;75.96;98591.56;5072842;28;20217;-82
2023/05/19 01:43:47;;;;;;;8.13;2.77;;;;;;;10.50;75.44;98603.63;5072165;28;20496;-82
2023/05/19 01:46:14;;;;;;;4.93;2.70;;;;;;;10.43;75.76;98602.28;5072853;28;20236;-82
2023/05/19 01:48:43;;;;;;;5.90;2.47;;;;;;;10.47;75.92;98601.19;5072652;28;20217;-82
2023/05/19 01:51:09;;;;;;;5.17;2.20;;;;;;;10.50;75.49;98603.63;5071907;28;20207;-82
2023/05/19 01:53:36;;;;;;;4.07;2.73;;;;;;;10.50;75.04;98599.19;5072372;28;20578;-82
2023/05/19 01:56:03;;;;;;;5.47;2.57;;;;;;;10.52;74.83;98601.75;5072106;28;20203;-82
2023/05/19 01:58:37;;;;;;;6.23;2.60;;;;;;;10.57;74.73;98591.72;5072609;28;20221;-82
2023/05/19 02:01:13;;;;;;;4.00;2.77;;;;;;;10.70;73.89;98597.97;5071959;28;20216;-82
2023/05/19 02:03:53;;;;;;;4.60;2.90;;;;;;;10.70;73.76;98587.41;5072073;28;20206;-82
2023/05/19 02:06:31;;;;;;;4.00;2.40;;;;;;;10.66;73.97;98593.81;5072286;28;20231;-82
2023/05/19 02:09:02;;;;;;;3.67;2.60;;;;;;;10.63;74.41;98596.63;5072236;28;20261;-82
2023/05/19 02:11:36;;;;;;;6.67;2.77;;;;;;;10.70;74.26;98595.31;5071881;28;20209;-82
2023/05/19 02:14:08;;;;;;;3.40;2.73;;;;;;;10.69;73.96;98588.31;5072088;28;20210;-82
2023/05/19 02:16:36;;;;;;;4.70;2.30;;;;;;;10.69;74.19;98597.09;5071868;28;20235;-82
2023/05/19 02:19:04;;;;;;;3.67;2.50;;;;;;;10.74;74.03;98596.81;5072166;28;20203;-82
2023/05/19 02:21:30;;;;;;;5.03;2.23;;;;;;;10.70;73.98;98600.63;5071784;28;20215;-82
2023/05/19 02:23:57;;;;;;;7.03;2.57;;;;;;;10.71;74.23;98600.50;5072049;28;20213;-82
2023/05/19 02:26:23;;;;;;;5.50;2.50;;;;;;;10.62;75.18;98600.22;5072026;28;20241;-82
2023/05/19 02:28:50;;;;;;;3.83;2.33;;;;;;;10.65;75.03;98605.34;5071859;28;20674;-82
2023/05/19 02:31:16;;;;;;;3.73;2.40;;;;;;;10.70;74.62;98593.50;5071637;28;20208;-82
2023/05/19 02:33:43;;;;;;;4.10;2.33;;;;;;;10.65;74.82;98595.59;5072313;28;20210;-82
2023/05/19 02:36:13;;;;;;;6.03;2.37;;;;;;;10.57;75.33;98602.28;5071809;28;20217;-82
2023/05/19 02:38:39;;;;;;;6.90;2.33;;;;;;;10.46;75.67;98604.78;5071537;28;20231;-82
2023/05/19 02:41:06;;;;;;;3.47;2.50;;;;;;;10.38;76.65;98609.66;5071437;28;20220;-82
2023/05/19 02:43:32;;;;;;;6.13;2.93;;;;;;;10.37;77.28;98606.19;5071947;28;20216;-82
2023/05/19 02:45:59;;;;;;;4.53;2.83;;;;;;;10.43;77.06;98600.53;5071678;28;20272;-82
2023/05/19 02:48:25;;;;;;;4.07;2.37;;;;;;;10.49;76.23;98594.84;5072196;28;20215;-82
2023/05/19 02:50:52;;;;;;;4.83;2.63;;;;;;;10.58;75.96;98598.72;5071523;28;20210;-83
2023/05/19 02:53:20;;;;;;;4.80;3.03;;;;;;;10.63;75.91;98593.97;5072003;28;20290;-83
2023/05/19 02:55:46;;;;;;;5.93;2.80;;;;;;;10.70;75.26;98604.09;5071427;28;20206;-83
2023/05/19 02:58:12;;;;;;;5.43;2.53;;;;;;;10.62;75.81;98589.66;5071823;28;20240;-82
2023/05/19 03:00:39;;;;;;;5.20;3.10;;;;;;;10.68;75.30;98589.25;5071691;28;20214;-83
2023/05/19 03:03:05;;;;;;;3.97;2.67;;;;;;;10.56;76.02;98587.38;5071765;28;20207;-82
2023/05/19 03:05:32;;;;;;;5.63;2.90;;;;;;;10.51;76.96;98598.25;5071769;28;20235;-82
2023/05/19 03:07:58;;;;;;;5.90;3.13;;;;;;;10.63;75.84;98586.91;5071452;28;20645;-83
2023/05/19 03:10:26;;;;;;;4.93;2.57;;;;;;;10.64;75.39;98588.59;5071528;28;20207;-83
2023/05/19 03:12:52;;;;;;;4.80;2.60;;;;;;;10.60;75.64;98586.25;5072065;28;20207;-83
2023/05/19 03:15:21;;;;;;;4.50;2.87;;;;;;;10.64;75.47;98582.50;5071610;28;20210;-83
2023/05/19 03:17:47;;;;;;;6.33;2.90;;;;;;;10.48;75.85;98587.88;5088968;22;20227;-77
2023/05/19 03:20:15;;;;;;;4.20;2.40;;;;;;;10.37;76.85;98600.91;5076415;28;20511;-77
2023/05/19 03:22:41;;;;;;;3.37;2.30;;;;;;;10.43;76.88;98599.66;5078547;28;20210;-77
2023/05/19 03:25:08;;;;;;;3.13;2.40;;;;;;;10.33;77.47;98587.97;5077900;28;20260;-75
2023/05/19 03:27:36;;;;;;;4.63;2.80;;;;;;;10.31;77.42;98595.97;5078609;28;20231;-76
2023/05/19 03:30:03;;;;;;;5.13;2.93;;;;;;;10.36;77.19;98587.75;5078239;28;20218;-75
2023/05/19 03:32:31;;;;;;;3.87;2.47;;;;;;;10.32;77.38;98592.38;5074145;28;20302;-75
2023/05/19 03:34:57;;;;;;;5.73;2.53;;;;;;;10.26;77.68;98594.53;5071294;28;20226;-75
2023/05/19 03:37:24;;;;;;;4.40;2.60;;;;;;;10.11;78.75;98600.75;5071126;28;20235;-76
2023/05/19 03:39:50;;;;;;;3.80;2.80;;;;;;;10.03;79.87;98605.63;5071072;28;20214;-76
2023/05/19 03:42:17;;;;;;;5.50;2.50;;;;;;;9.97;80.52;98601.53;5071245;28;20208;-77
2023/05/19 03:44:45;;;;;;;4.47;3.03;;;;;;;9.92;81.54;98608.06;5071504;28;20246;-75
2023/05/19 03:47:11;;;;;;;7.43;3.17;;;;;;;9.82;82.44;98613.03;5072002;28;20232;-75
2023/05/19 03:49:37;;;;;;;5.40;2.87;;;;;;;9.81;82.90;98613.09;5071661;28;20217;-76
2023/05/19 03:52:04;;;;;;;6.83;2.70;;;;;;;9.76;83.06;98620.44;5073631;28;20210;-75
2023/05/19 03:54:31;;;;;;;5.73;3.13;;;;;;;9.75;83.63;98618.75;5077932;28;20205;-75
2023/05/19 03:56:58;;;;;;;3.37;2.50;;;;;;;9.70;83.95;98623.44;5074613;28;20254;-75
2023/05/19 03:59:24;;;;;;;5.03;2.30;;;;;;;9.67;84.49;98626.25;5070426;28;20218;-75
2023/05/19 04:01:52;;;;;;;4.50;2.53;;;;;;;9.71;84.55;98631.25;5070680;28;20206;-76
2023/05/19 04:04:19;;;;;;;4.30;2.63;;;;;;;9.72;83.96;98632.13;5070399;28;20210;-75
2023/05/19 04:06:45;;;;;;;3.97;2.90;;;;;;;9.75;83.82;98635.44;5070496;28;20246;-75
2023/05/19 04:09:13;;;;;;;6.87;2.60;;;;;;;9.82;83.49;98625.34;5073715;28;20208;-75
2023/05/19 04:11:40;;;;;;;4.43;2.87;;;;;;;9.79;83.14;98622.91;5074413;28;20242;-75
2023/05/19 04:14:07;;;;;;;5.73;2.73;;;;;;;9.86;82.96;98629.53;5074263;28;20207;-75
2023/05/19 04:16:33;;;;;;;4.80;2.80;;;;;;;9.76;82.97;98629.22;5073854;28;20685;-75
2023/05/19 04:19:01;;;;;;;5.10;2.80;;;;;;;9.80;83.31;98640.44;5073770;28;20210;-75
2023/05/19 04:21:28;;;;;;;5.13;2.60;;;;;;;9.69;83.54;98634.94;5073950;28;20213;-75
2023/05/19 04:23:54;;;;;;;6.77;2.80;;;;;;;9.72;83.88;98635.59;5073728;28;20203;-76
2023/05/19 04:26:21;;;;;;;5.50;2.80;;;;;;;9.70;84.51;98636.63;5073599;28;20227;-75
2023/05/19 04:28:48;;;;;;;4.17;2.77;;;;;;;9.74;84.57;98640.78;5073715;28;20203;-74
2023/05/19 04:31:14;;;;;;;4.43;2.93;;;;;;;9.85;83.89;98638.41;5073795;28;20208;-76
2023/05/19 04:33:41;;;;;;;7.43;3.00;;;;;;;9.84;83.66;98626.97;5073629;28;20689;-75
2023/05/19 04:36:10;;;;;;;3.37;2.60;;;;;;;9.78;84.53;98637.06;5073615;28;20694;-75
2023/05/19 04:38:38;;;;;;;6.50;2.90;;;;;;;9.81;84.15;98627.16;5073684;28;20228;-76
2023/05/19 04:41:08;;;;;;;6.90;3.03;;;;;;;9.99;82.88;98630.50;5074651;28;20211;-76
2023/05/19 04:46:56;;;;;;;4.63;2.80;;;;;;;10.08;81.97;98624.69;5055761;28;20316;-75
2023/05/19 04:49:23;;;;;;;4.43;2.57;;;;;;;10.10;81.63;98620.19;5073159;28;20212;-77
2023/05/19 04:51:51;;;;;;;5.33;2.87;;;;;;;10.19;81.59;98628.41;5073231;28;20768;-77
2023/05/19 04:54:18;;;;;;;5.53;2.77;;;;;;;10.26;81.28;98628.88;5073760;28;20309;-77
2023/05/19 04:56:45;;;;;;;3.93;2.40;;;;;;;10.27;82.05;98633.25;5073037;28;20322;-75
2023/05/19 04:59:11;;;;;;;6.87;3.03;;;;;;;10.32;81.49;98629.38;5073428;28;20216;-76
2023/05/19 05:01:39;;;;;;;5.50;2.90;;;;;;;10.40;82.15;98631.56;5073868;28;20226;-75
2023/05/19 05:04:05;;;;;;;4.70;2.47;;;;;;;10.40;80.94;98627.13;5075879;28;20757;-76
2023/05/19 05:06:32;;;;;;;6.40;3.10;;;;;;;10.46;80.05;98621.44;5075575;28;20232;-76
2023/05/19 05:09:02;;;;;;;4.03;2.50;;;;;;;10.53;78.99;98616.66;5076605;28;20209;-77
2023/05/19 05:11:29;;;;;;;24.57;3.63;;;;;;;10.66;78.42;98621.09;5083730;28;20257;-76
2023/05/19 05:13:56;;;;;;;5.60;2.73;;;;;;;10.78;77.69;98617.69;5092717;28;20214;-75
2023/05/19 05:16:23;;;;;;;5.17;3.03;;;;;;;10.88;77.06;98613.50;5092084;28;20203;-76
2023/05/19 05:18:50;;;;;;;4.73;2.97;;;;;;;10.99;75.97;98607.53;5089154;28;20701;-75
2023/05/19 05:21:17;;;;;;;3.83;2.43;;;;;;;11.13;74.86;98607.53;5083571;28;20215;-76
2023/05/19 05:23:44;;;;;;;4.20;2.57;;;;;;;11.30;75.07;98604.63;5093430;28;20209;-76
2023/05/19 05:26:18;;;;;;;5.97;2.90;;;;;;;11.47;73.69;98599.09;5095390;28;20344;-76
2023/05/19 05:28:44;;;;;;;6.20;2.57;;;;;;;11.66;72.97;98591.69;5095510;28;20239;-75
2023/05/19 05:31:11;;;;;;;3.80;2.40;;;;;;;11.78;72.50;98591.72;5094931;28;20297;-76
2023/05/19 05:33:38;;;;;;;4.90;2.87;;;;;;;11.96;71.47;98594.94;5095303;28;20221;-75
2023/05/19 05:36:05;;;;;;;6.90;2.70;;;;;;;12.27;71.04;98594.53;5093217;28;20208;-77
2023/05/19 05:38:32;;;;;;;4.43;2.50;;;;;;;12.58;69.58;98583.50;5080179;28;20230;-77
2023/05/19 05:40:58;;;;;;;7.60;2.67;;;;;;;12.70;67.42;98572.03;5081112;28;20579;-77
2023/05/19 05:43:26;;;;;;;4.67;2.60;;;;;;;12.84;67.64;98569.28;5085252;28;20203;-77
2023/05/19 05:45:52;;;;;;;5.57;2.73;;;;;;;12.94;66.55;98572.94;5083352;28;20227;-74
2023/05/19 05:48:19;;;;;;;5.00;2.60;;;;;;;12.91;67.29;98575.84;5082428;28;20227;-77
2023/05/19 05:50:48;;;;;;;6.40;2.67;;;;;;;12.98;67.91;98587.72;5078865;28;20214;-77
2023/05/19 05:53:18;;;;;;;3.77;2.43;;;;;;;12.92;66.68;98580.19;5081303;28;20211;-76
2023/05/19 05:55:46;;;;;;;5.17;2.60;;;;;;;12.91;66.91;98576.66;5074691;28;20214;-77
2023/05/19 05:58:14;;;;;;;6.27;3.07;;;;;;;12.99;67.68;98581.47;5072030;28;20650;-77
2023/05/19 06:00:42;;;;;;;3.70;2.30;;;;;;;13.22;68.17;98591.28;5071635;28;20247;-77
2023/05/19 06:03:09;;;;;;;5.43;2.80;;;;;;;13.21;67.00;98589.59;5071750;28;20238;-76
2023/05/19 06:05:36;;;;;;;6.97;2.90;;;;;;;13.25;67.73;98591.03;5071941;28;20234;-77
2023/05/19 06:08:02;;;;;;;7.30;3.03;;;;;;;13.54;67.21;98595.06;5071864;28;20229;-77
2023/05/19 06:10:29;;;;;;;5.27;2.70;;;;;;;13.85;66.54;98581.19;5071557;28;20318;-78
2023/05/19 06:12:56;;;;;;;5.10;2.40;;;;;;;14.11;65.76;98580.09;5071782;28;20337;-77
2023/05/19 06:15:23;;;;;;;8.23;2.80;;;;;;;14.34;64.58;98580.06;5071623;28;20204;-76
2023/05/19 06:17:50;;;;;;;4.07;2.53;;;;;;;14.29;64.13;98571.56;5071307;28;20262;-77
2023/05/19 06:20:18;;;;;;;5.20;3.07;;;;;;;14.36;64.55;98570.13;5071728;28;20216;-75
2023/05/19 06:22:45;;;;;;;7.10;2.70;;;;;;;14.63;63.00;98556.50;5071628;28;20212;-75
2023/05/19 06:25:12;;;;;;;3.83;2.47;;;;;;;15.16;62.04;98553.06;5071573;28;20205;-76
2023/05/19 06:27:39;;;;;;;5.27;2.70;;;;;;;15.77;60.69;98550.59;5071538;28;20236;-78
2023/05/19 06:30:07;;;;;;;6.57;2.33;;;;;;;16.02;58.83;98528.06;5070723;28;20210;-77
2023/05/19 06:32:33;;;;;;;5.67;2.57;;;;;;;16.30;57.98;98523.75;5071290;28;20242;-76
2023/05/19 06:35:01;;;;;;;5.53;2.90;;;;;;;16.34;56.86;98514.47;5071743;28;20210;-77
2023/05/19 06:37:28;;;;;;;6.70;3.00;;;;;;;16.42;57.63;98532.53;5071346;28;20234;-77
2023/05/19 06:39:54;;;;;;;5.93;2.90;;;;;;;16.42;56.28;98513.88;5071174;28;20571;-75
2023/05/19 06:42:21;;;;;;;5.97;2.67;;;;;;;16.01;57.30;98527.19;5071323;28;20218;-75
2023/05/19 06:44:48;;;;;;;7.50;3.10;;;;;;;15.63;57.71;98526.09;5071216;28;20673;-75
2023/05/19 06:47:15;;;;;;;7.33;2.93;;;;;;;15.59;60.10;98545.94;5071289;28;20288;-74
2023/05/19 06:49:42;;;;;;;6.00;3.00;;;;;;;15.37;59.94;98540.69;5071044;28;20285;-72
2023/05/19 06:52:10;;;;;;;5.23;2.90;;;;;;;15.10;61.17;98558.88;5071377;28;20210;-73
2023/05/19 06:54:36;;;;;;;4.63;2.77;;;;;;;14.80;61.99;98556.84;5071170;28;20215;-73
2023/05/19 06:57:03;;;;;;;7.27;2.77;;;;;;;14.59;63.70;98571.84;5071070;28;20234;-73
2023/05/19 06:59:30;;;;;;;7.20;3.23;;;;;;;14.54;65.74;98583.84;5070697;28;20215;-74
2023/05/19 07:01:56;;;;;;;6.77;3.10;;;;;;;14.67;65.99;98587.22;5070977;28;20676;-75
2023/05/19 07:04:23;;;;;;;4.13;2.73;;;;;;;14.90;67.14;98594.25;5071278;28;20209;-74
2023/05/19 07:06:50;;;;;;;5.70;3.30;;;;;;;15.12;66.27;98583.56;5070876;28;20709;-73
2023/05/19 07:09:17;;;;;;;4.13;2.90;;;;;;;15.19;62.41;98555.47;5070813;28;20221;-75
2023/05/19 07:11:44;;;;;;;4.33;2.90;;;;;;;15.01;61.11;98538.31;5070993;28;20214;-75
2023/05/19 07:14:10;;;;;;;5.80;2.93;;;;;;;15.11;61.02;98544.59;5070698;28;20261;-75
2023/05/19 07:16:37;;;;;;;8.27;3.37;;;;;;;15.17;62.15;98560.09;5071043;28;20213;-75
2023/05/19 07:19:03;;;;;;;4.30;2.93;;;;;;;15.03;63.43;98563.84;5071065;28;20207;-75
2023/05/19 07:21:30;;;;;;;6.53;2.83;;;;;;;15.10;62.76;98559.72;5070798;28;20583;-75
2023/05/19 07:23:56;;;;;;;5.97;2.80;;;;;;;15.24;63.66;98563.94;5071007;28;20213;-76
2023/05/19 07:26:25;;;;;;;7.23;3.47;;;;;;;15.33;63.63;98565.91;5070680;28;20234;-76
2023/05/19 07:28:52;;;;;;;5.47;2.97;;;;;;;15.29;63.39;98569.75;5070972;28;20808;-74
2023/05/19 07:31:18;;;;;;;5.50;2.70;;;;;;;15.16;62.87;98559.22;5070607;28;20532;-74
2023/05/19 07:33:44;;;;;;;5.00;3.10;;;;;;;15.17;64.53;98573.41;5070822;28;20207;-74
2023/05/19 07:36:11;;;;;;;4.30;2.73;;;;;;;15.01;64.20;98571.13;5068336;28;20207;-74
2023/05/19 07:38:37;;;;;;;5.73;2.87;;;;;;;14.89;62.75;98555.28;5069821;28;20231;-74
2023/05/19 07:41:04;;;;;;;6.40;3.00;;;;;;;14.92;62.98;98555.03;5069940;28;20302;-74
2023/05/19 07:43:32;;;;;;;4.80;2.77;;;;;;;15.00;61.43;98548.13;5073473;28;20659;-74
2023/05/19 07:45:58;;;;;;;5.33;2.70;;;;;;;14.91;61.50;98548.03;5073164;28;20262;-74
2023/05/19 07:48:25;;;;;;;6.30;3.37;;;;;;;14.87;62.35;98560.72;5073504;28;20231;-74
2023/05/19 07:50:52;;;;;;;4.60;2.80;;;;;;;14.91;60.99;98537.38;5073236;28;20582;-75
2023/05/19 07:53:19;;;;;;;7.23;3.23;;;;;;;14.93;60.96;98535.44;5073587;28;20214;-76
2023/05/19 07:55:46;;;;;;;6.10;2.83;;;;;;;15.00;61.90;98547.28;5073349;28;20226;-75
2023/05/19 07:58:12;;;;;;;6.27;3.00;;;;;;;15.15;61.57;98538.06;5073805;28;20252;-75
2023/05/19 08:00:41;;;;;;;4.53;3.20;;;;;;;15.22;60.27;98525.94;5073010;28;20569;-75
2023/05/19 08:03:08;;;;;;;5.10;2.83;;;;;;;15.28;61.55;98539.59;5073394;28;20735;-75
2023/05/19 08:05:35;;;;;;;8.00;3.00;;;;;;;15.33;62.74;98552.59;5072766;28;20225;-75
2023/05/19 08:08:01;;;;;;;7.07;3.03;;;;;;;15.37;63.52;98556.66;5073068;28;20241;-75
2023/05/19 08:10:28;;;;;;;6.10;3.30;;;;;;;15.37;63.79;98546.00;5072742;28;20218;-77
2023/05/19 08:12:55;;;;;;;5.53;2.70;;;;;;;15.39;62.87;98541.44;5073344;28;20225;-75
2023/05/19 08:15:21;;;;;;;5.27;2.97;;;;;;;15.28;63.26;98546.75;5072667;28;20210;-75
2023/05/19 08:17:50;;;;;;;4.73;3.17;;;;;;;15.18;63.18;98546.66;5072266;28;20235;-75
2023/05/19 08:20:16;;;;;;;7.57;3.20;;;;;;;15.06;62.54;98531.66;5073168;28;20210;-76
2023/05/19 08:22:43;;;;;;;5.80;3.20;;;;;;;15.07;63.24;98538.69;5073599;28;20207;-76
2023/05/19 08:25:10;;;;;;;6.73;3.20;;;;;;;15.03;65.12;98553.19;5073600;28;20220;-76
2023/05/19 08:27:37;;;;;;;8.27;3.27;;;;;;;15.07;64.94;98546.66;5073532;28;20229;-75
2023/05/19 08:30:03;;;;;;;6.10;3.13;;;;;;;15.00;64.81;98544.63;5073546;28;20217;-77
2023/05/19 08:32:30;;;;;;;5.70;3.03;;;;;;;15.01;65.27;98547.16;5073754;28;20210;-75
2023/05/19 08:34:58;;;;;;;5.23;3.20;;;;;;;14.96;62.75;98529.88;5073638;28;20584;-76
2023/05/19 08:37:24;;;;;;;5.83;3.07;;;;;;;15.01;64.19;98535.66;5073618;28;20230;-75
2023/05/19 08:39:51;;;;;;;7.90;3.30;;;;;;;15.06;64.36;98541.47;5073404;28;20584;-75
2023/05/19 08:42:17;;;;;;;5.93;2.83;;;;;;;14.98;63.24;98527.94;5073661;28;20208;-76
2023/05/19 08:44:44;;;;;;;7.10;3.53;;;;;;;14.96;64.51;98540.53;5073223;28;20210;-76
2023/05/19 08:47:12;;;;;;;4.37;2.73;;;;;;;15.04;64.02;98533.59;5073295;28;20238;-75
2023/05/19 08:49:44;;;;;;;5.23;3.27;;;;;;;15.09;65.42;98544.72;5073072;28;20222;-74
2023/05/19 08:52:22;;;;;;;3.50;2.60;;;;;;;15.16;65.53;98547.75;5071640;28;20658;-78
2023/05/19 08:54:54;;;;;;;7.37;2.90;;;;;;;15.16;62.83;98526.44;5070230;28;20206;-76
2023/05/19 08:57:22;;;;;;;5.57;3.07;;;;;;;15.09;63.16;98528.75;5070311;28;20227;-76
2023/05/19 08:59:50;;;;;;;4.73;3.00;;;;;;;15.06;65.00;98541.47;5070835;28;20229;-76
2023/05/19 09:02:18;;;;;;;7.90;3.13;;;;;;;15.11;64.50;98536.63;5072998;28;20210;-76
2023/05/19 09:04:46;;;;;;;3.80;2.70;;;;;;;15.11;64.89;98541.94;5072393;28;20229;-76
2023/05/19 09:07:15;;;;;;;5.17;2.87;;;;;;;15.10;66.45;98545.56;5070365;28;20230;-75
2023/05/19 09:09:42;;;;;;;6.07;2.70;;;;;;;15.16;67.37;98547.75;5070136;28;20215;-76
2023/05/19 09:12:09;;;;;;;4.67;3.10;;;;;;;15.21;64.97;98530.41;5070168;28;20241;-75
2023/05/19 09:14:36;;;;;;;7.10;3.47;;;;;;;15.24;64.30;98534.66;5072144;28;20217;-77
2023/05/19 09:17:03;;;;;;;12.23;5.27;;;;;;;15.29;64.07;98528.00;5088063;22;20243;-79
2023/05/19 09:19:30;;;;;;;4.50;2.73;;;;;;;15.27;61.92;98508.59;5055636;28;20610;-80
2023/05/19 09:22:00;;;;;;;5.60;2.67;;;;;;;15.22;63.74;98531.28;5050153;28;20212;-80
2023/05/19 09:24:28;;;;;;;5.57;2.63;;;;;;;15.23;62.90;98516.97;5048603;28;20215;-80
2023/05/19 09:26:56;;;;;;;5.27;2.90;;;;;;;15.25;61.68;98507.91;5049284;28;20639;-81
2023/05/19 09:29:22;;;;;;;4.30;3.10;;;;;;;15.25;63.97;98531.00;5051789;28;20561;-81
2023/05/19 09:31:50;;;;;;;6.37;3.27;;;;;;;15.28;64.72;98538.75;5050768;28;20208;-81
2023/05/19 09:34:16;;;;;;;5.80;2.90;;;;;;;15.32;64.35;98532.19;5048572;28;20218;-80
2023/05/19 09:36:43;;;;;;;4.53;2.90;;;;;;;15.41;63.81;98531.47;5048730;28;20226;-81
2023/05/19 09:39:14;;;;;;;6.10;3.13;;;;;;;15.43;63.96;98529.53;5048459;28;20235;-80
2023/05/19 09:41:42;;;;;;;6.00;2.83;;;;;;;15.48;62.34;98522.00;5051583;28;20261;-77
2023/05/19 09:44:13;;;;;;;7.63;3.47;;;;;;;15.53;63.46;98519.81;5052137;28;20215;-77
2023/05/19 09:46:47;;;;;;;5.20;2.83;;;;;;;15.59;63.74;98525.47;5050044;28;20239;-77
2023/05/19 09:49:14;;;;;;;3.53;2.80;;;;;;;15.63;64.07;98526.09;5049202;28;20677;-78
2023/05/19 09:51:41;;;;;;;4.90;2.90;;;;;;;15.70;63.56;98527.25;5049146;28;20245;-77
2023/05/19 09:54:09;;;;;;;6.10;3.20;;;;;;;15.77;60.04;98499.13;5050260;28;20266;-79
2023/05/19 09:56:36;;;;;;;8.43;3.53;;;;;;;15.66;62.01;98501.84;5051660;28;20252;-80
2023/05/19 09:59:04;;;;;;;7.23;3.43;;;;;;;15.63;62.67;98515.44;5050910;28;20236;-80
2023/05/19 10:01:32;;;;;;;6.43;3.13;;;;;;;15.73;62.95;98513.66;5048938;28;20207;-80
2023/05/19 10:03:59;;;;;;;7.33;3.53;;;;;;;15.79;64.31;98523.81;5048846;28;20238;-79
2023/05/19 10:06:26;;;;;;;7.03;3.07;;;;;;;16.08;63.34;98524.88;5048349;28;20208;-85
2023/05/19 10:08:53;;;;;;;6.47;2.90;;;;;;;16.15;63.07;98513.56;5051259;28;20242;-82
2023/05/19 10:11:22;;;;;;;5.63;3.33;;;;;;;16.25;62.28;98507.28;5050437;28;20443;-79
2023/05/19 10:13:51;;;;;;;5.50;3.13;;;;;;;16.38;62.58;98510.63;5051649;28;20226;-80
2023/05/19 10:16:21;;;;;;;6.73;3.17;;;;;;;16.37;61.21;98495.56;5051599;28;20208;-79
2023/05/19 10:18:51;;;;;;;5.33;3.00;;;;;;;16.24;60.40;98486.94;5051337;28;20243;-76
2023/05/19 10:21:18;;;;;;;5.60;3.20;;;;;;;16.18;61.00;98486.59;5051095;28;20215;-80
2023/05/19 10:23:44;;;;;;;5.43;3.20;;;;;;;16.09;61.13;98492.75;5051273;28;20212;-80
2023/05/19 10:26:12;;;;;;;4.83;2.77;;;;;;;15.94;59.47;98474.56;5052601;28;20212;-80
2023/05/19 10:28:42;;;;;;;5.17;3.30;;;;;;;15.89;58.98;98474.09;5056382;28;20231;-80
2023/05/19 10:31:16;;;;;;;4.67;2.97;;;;;;;15.78;60.05;98488.34;5054252;28;20212;-81
2023/05/19 10:34:00;;;;;;;4.83;3.23;;;;;;;15.73;60.24;98484.34;5052970;28;20287;-80
2023/05/19 10:36:44;;;;;;;5.10;3.07;;;;;;;15.60;61.08;98489.03;5052219;28;20211;-81
2023/05/19 10:39:17;;;;;;;7.67;3.20;;;;;;;15.58;61.19;98496.31;5051473;28;20231;-81
2023/05/19 10:41:50;;;;;;;7.23;4.03;;;;;;;15.59;61.78;98498.00;5055802;28;20221;-80
2023/05/19 10:44:28;;;;;;;5.93;3.03;;;;;;;15.78;58.17;98467.00;5061215;28;20234;-79
2023/05/19 10:46:54;;;;;;;5.63;3.20;;;;;;;15.80;59.92;98482.84;5075023;28;20228;-79
2023/05/19 10:49:22;;;;;;;4.00;2.67;;;;;;;15.93;61.51;98491.50;5076048;28;20198;-79
2023/05/19 10:51:51;;;;;;;6.00;2.80;;;;;;;16.23;60.95;98484.41;5075684;28;20195;-79
2023/05/19 10:54:18;;;;;;;5.53;3.10;;;;;;;16.49;61.14;98486.53;5073117;28;20210;-78
2023/05/19 10:56:46;;;;;;;4.50;3.20;;;;;;;16.55;58.39;98459.31;5072813;28;20191;-78
2023/05/19 10:59:30;;;;;;;6.90;3.00;;;;;;;16.52;59.01;98470.22;5071362;28;20210;-77
2023/05/19 11:01:57;;;;;;;5.77;2.87;;;;;;;16.51;60.63;98483.72;5059251;28;20727;-77
2023/05/19 11:04:39;;;;;;;3.33;3.03;;;;;;;16.18;58.47;98465.28;5069614;28;20215;-77
2023/05/19 11:07:08;;;;;;;5.27;3.57;;;;;;;16.04;60.45;98481.63;5068176;28;20236;-78
2023/05/19 11:09:40;;;;;;;5.73;3.37;;;;;;;15.98;61.69;98483.97;5071293;28;20298;-79
2023/05/19 11:12:09;;;;;;;5.53;3.20;;;;;;;15.97;62.44;98490.28;5068409;28;20196;-79
2023/05/19 11:14:36;;;;;;;5.80;2.90;;;;;;;16.06;60.86;98481.50;5070522;28;20215;-80
2023/05/19 11:17:04;;;;;;;4.80;3.00;;;;;;;16.09;61.72;98493.56;5075460;28;20235;-80
2023/05/19 11:19:32;;;;;;;5.33;2.90;;;;;;;16.16;62.34;98500.06;5075600;28;20307;-79
2023/05/19 11:22:09;;;;;;;5.97;3.53;;;;;;;16.16;58.09;98452.06;5070300;28;20212;-82
2023/05/19 11:24:37;;;;;;;7.43;3.43;;;;;;;16.13;59.69;98469.31;5064430;28;20211;-78
2023/05/19 11:27:26;;;;;;;5.17;3.17;;;;;;;16.16;61.44;98488.56;5071569;28;20220;-79
2023/05/19 11:29:54;;;;;;;6.33;3.30;;;;;;;16.20;60.01;98477.50;5073044;28;20220;-80
2023/05/19 11:32:22;;;;;;;5.33;3.20;;;;;;;16.02;60.57;98486.22;5070791;28;20211;-80
2023/05/19 11:34:49;;;;;;;7.37;3.50;;;;;;;15.91;60.95;98488.97;5070985;28;20200;-80
2023/05/19 11:37:17;;;;;;;4.17;2.93;;;;;;;15.91;58.07;98458.78;5073098;28;20223;-82
2023/05/19 11:39:45;;;;;;;5.37;3.20;;;;;;;15.85;59.91;98483.31;5074025;28;20196;-84
2023/05/19 11:42:12;;;;;;;6.20;3.17;;;;;;;15.82;58.05;98448.94;5071989;28;20203;-83